Terminal Aerodrome Forecast
Issued by NWS

Home | Current Version | Previous Version | Text Only | Print | Product List | Glossary On
Versions: 1 2 3 4 5 6 7 8 9 10 11 12
000
FTUS44 KOUN 201134
TAFHBR
TAF
KHBR 201134Z 2012/2112 17010KT P6SM VCSH SCT050 BKN100
     FM201400 17010KT 6SM -SHRA SCT025 OVC050
     FM201800 17011KT P6SM VCSH SCT025 BKN050
     FM210300 17010KT P6SM VCSH SCT008 BKN035
     FM210700 17008KT 4SM BR VCSH BKN007 OVC030=

USA.gov is the U.S. government's official web portal to all federal, state and local government web resources and services.